Time;durP1;ratioP1;P1;durP2;ratioP2;P2;SDS_P1;SDS_P2;PMS_P1;PMS_P2;Temp;Humidity;BMP_temperature;BMP_pressure;BME280_temperature;BME280_humidity;BME280_pressure;Samples;Min_cycle;Max_cycle;Signal;HPM_P1;HPM_P2
2021/06/23 00:01:28;;;;;;;7.40;6.55;;;;;;;;;;5012733;28;20037;-83
2021/06/23 00:03:54;;;;;;;8.18;7.38;;;;;;;;;;5012646;28;20042;-83
2021/06/23 00:06:19;;;;;;;9.45;7.32;;;;;;;;;;4996932;28;20061;-84
2021/06/23 00:08:44;;;;;;;7.50;6.80;;;;;;;;;;5012832;28;20053;-84
2021/06/23 00:11:10;;;;;;;7.95;7.05;;;;;;;;;;4996627;28;20026;-84
2021/06/23 00:13:36;;;;;;;8.27;7.10;;;;;;;;;;4996200;28;20021;-83
2021/06/23 00:16:04;;;;;;;6.75;6.10;;;;;;;;;;4996699;28;20137;-84
2021/06/23 00:18:30;;;;;;;7.32;6.63;;;;;;;;;;4996196;28;20124;-84
2021/06/23 00:20:55;;;;;;;7.93;6.93;;;;;;;;;;5012663;28;20131;-84
2021/06/23 00:23:21;;;;;;;7.28;6.60;;;;;;;;;;5052135;28;20079;-84
2021/06/23 00:25:46;;;;;;;6.88;6.18;;;;;;;;;;5035751;28;20035;-83
2021/06/23 00:28:12;;;;;;;7.55;6.38;;;;;;;;;;5035485;28;20112;-83
2021/06/23 00:30:37;;;;;;;7.32;6.35;;;;;;;;;;5051698;28;20051;-84
2021/06/23 00:33:07;;;;;;;7.50;6.70;;;;;;;;;;5035644;28;20124;-84
2021/06/23 00:35:33;;;;;;;6.70;5.97;;;;;;;;;;5034629;28;20036;-83
2021/06/23 00:37:59;;;;;;;6.70;6.10;;;;;;;;;;5012247;28;20133;-83
2021/06/23 00:40:24;;;;;;;7.32;6.35;;;;;;;;;;5007343;28;20059;-83
2021/06/23 00:42:51;;;;;;;7.75;6.38;;;;;;;;;;5009118;28;20503;-82
2021/06/23 00:45:17;;;;;;;7.13;5.43;;;;;;;;;;4995372;28;20022;-82
2021/06/23 00:47:43;;;;;;;6.43;5.82;;;;;;;;;;5042004;28;20044;-83
2021/06/23 00:50:09;;;;;;;7.72;5.72;;;;;;;;;;5030826;28;20488;-83
2021/06/23 00:52:35;;;;;;;7.38;6.32;;;;;;;;;;4999164;28;20033;-82
2021/06/23 00:55:00;;;;;;;7.30;6.60;;;;;;;;;;5015582;28;20046;-82
2021/06/23 00:57:26;;;;;;;7.57;6.38;;;;;;;;;;4999022;28;20044;-83
2021/06/23 00:59:52;;;;;;;6.38;5.78;;;;;;;;;;4982125;28;20021;-83
2021/06/23 01:02:19;;;;;;;6.18;5.57;;;;;;;;;;4998802;28;20037;-83
2021/06/23 01:04:48;;;;;;;6.15;5.45;;;;;;;;;;4998622;28;20029;-82
2021/06/23 01:07:14;;;;;;;6.88;6.18;;;;;;;;;;5015411;28;20484;-84
2021/06/23 01:09:39;;;;;;;8.68;7.53;;;;;;;;;;5015035;28;20112;-83
2021/06/23 01:12:21;;;;;;;7.03;5.82;;;;;;;;;;5015719;28;20033;-84
2021/06/23 01:14:46;;;;;;;6.88;6.13;;;;;;;;;;4998594;28;20530;-83
2021/06/23 01:17:12;;;;;;;7.13;6.43;;;;;;;;;;4998443;28;20132;-82
2021/06/23 01:19:42;;;;;;;7.75;6.75;;;;;;;;;;4998132;28;20502;-83
2021/06/23 01:22:08;;;;;;;8.00;6.70;;;;;;;;;;5033361;28;20044;-83
2021/06/23 01:24:34;;;;;;;7.75;6.53;;;;;;;;;;4998009;28;20378;-83
2021/06/23 01:26:59;;;;;;;7.07;6.35;;;;;;;;;;4994934;28;20153;-83
2021/06/23 01:29:26;;;;;;;7.30;5.97;;;;;;;;;;5011243;28;20030;-84
2021/06/23 01:31:52;;;;;;;7.53;6.38;;;;;;;;;;4995171;28;20061;-83
2021/06/23 01:34:18;;;;;;;7.38;6.65;;;;;;;;;;5026061;28;20065;-83
2021/06/23 01:36:43;;;;;;;7.25;6.30;;;;;;;;;;5011291;28;20072;-83
2021/06/23 01:39:09;;;;;;;6.93;6.30;;;;;;;;;;4994769;28;20037;-84
2021/06/23 01:41:34;;;;;;;7.90;6.18;;;;;;;;;;5005192;28;20068;-84
2021/06/23 01:44:01;;;;;;;7.30;6.35;;;;;;;;;;5014280;28;20044;-84
2021/06/23 01:46:29;;;;;;;7.82;7.03;;;;;;;;;;5014192;28;20044;-85
2021/06/23 01:48:55;;;;;;;8.02;6.72;;;;;;;;;;5010521;28;20369;-84
2021/06/23 01:51:21;;;;;;;7.75;6.57;;;;;;;;;;4994985;28;20052;-84
2021/06/23 01:53:46;;;;;;;6.68;5.97;;;;;;;;;;5010931;28;20484;-85
2021/06/23 01:56:12;;;;;;;6.60;6.00;;;;;;;;;;4994550;28;20080;-85
2021/06/23 01:58:41;;;;;;;9.10;6.95;;;;;;;;;;5011412;28;20406;-86
2021/06/23 02:01:17;;;;;;;7.57;5.75;;;;;;;;;;5014475;28;20096;-87
2021/06/23 02:03:55;;;;;;;8.40;7.53;;;;;;;;;;5047034;28;20030;-87
2021/06/23 02:06:39;;;;;;;7.43;6.15;;;;;;;;;;5047474;28;20029;-85
2021/06/23 02:09:35;;;;;;;7.40;6.55;;;;;;;;;;5047626;28;20034;-87
2021/06/23 02:12:28;;;;;;;9.60;6.70;;;;;;;;;;5031142;28;20030;-87
2021/06/23 02:14:56;;;;;;;7.07;6.20;;;;;;;;;;5029050;28;20084;-86
2021/06/23 02:17:26;;;;;;;6.43;5.72;;;;;;;;;;4994570;28;20391;-86
2021/06/23 02:19:52;;;;;;;7.68;6.55;;;;;;;;;;4994797;28;20052;-85
2021/06/23 02:22:23;;;;;;;8.57;7.07;;;;;;;;;;5011263;28;20108;-85
2021/06/23 02:24:51;;;;;;;8.90;7.03;;;;;;;;;;5010851;28;20049;-86
2021/06/23 02:27:18;;;;;;;7.45;6.15;;;;;;;;;;5028258;28;20033;-85
2021/06/23 02:29:45;;;;;;;6.95;6.25;;;;;;;;;;5030429;28;20025;-85
2021/06/23 02:32:14;;;;;;;6.90;6.22;;;;;;;;;;4998177;28;20033;-85
2021/06/23 02:34:40;;;;;;;6.85;6.15;;;;;;;;;;4997202;28;20399;-85
2021/06/23 02:37:06;;;;;;;7.65;6.85;;;;;;;;;;5011636;28;20069;-85
2021/06/23 02:39:32;;;;;;;6.75;6.07;;;;;;;;;;5013843;28;20060;-85
2021/06/23 02:41:57;;;;;;;6.53;5.88;;;;;;;;;;5013857;28;20033;-85
2021/06/23 02:44:24;;;;;;;7.05;5.78;;;;;;;;;;4997704;28;20156;-85
2021/06/23 02:46:50;;;;;;;6.22;5.63;;;;;;;;;;4997563;28;20038;-85
2021/06/23 02:49:17;;;;;;;6.90;6.20;;;;;;;;;;4989207;28;20025;-85
2021/06/23 02:51:43;;;;;;;8.30;6.82;;;;;;;;;;4994360;28;20036;-85
2021/06/23 02:54:08;;;;;;;7.25;5.97;;;;;;;;;;4994229;28;20034;-85
2021/06/23 02:56:34;;;;;;;6.90;5.88;;;;;;;;;;5010637;28;20044;-85
2021/06/23 02:59:01;;;;;;;6.43;5.82;;;;;;;;;;4993906;28;20030;-84
2021/06/23 03:01:26;;;;;;;6.95;5.38;;;;;;;;;;4993522;28;20144;-84
2021/06/23 03:03:52;;;;;;;6.80;5.90;;;;;;;;;;4994087;28;20038;-84
2021/06/23 03:06:18;;;;;;;6.13;5.53;;;;;;;;;;5011364;28;20032;-83
2021/06/23 03:08:43;;;;;;;6.63;5.70;;;;;;;;;;5012619;28;20033;-83
2021/06/23 03:11:09;;;;;;;6.05;5.45;;;;;;;;;;5013379;28;20037;-83
2021/06/23 03:13:34;;;;;;;6.30;5.70;;;;;;;;;;5020718;28;20038;-83
2021/06/23 03:16:00;;;;;;;6.55;5.95;;;;;;;;;;4997209;28;20096;-83
2021/06/23 03:18:28;;;;;;;6.97;6.28;;;;;;;;;;4997331;28;20376;-83
2021/06/23 03:20:54;;;;;;;7.13;6.07;;;;;;;;;;5014083;28;20036;-83
2021/06/23 03:23:19;;;;;;;6.57;5.68;;;;;;;;;;5053154;28;20033;-83
2021/06/23 03:25:45;;;;;;;6.03;5.43;;;;;;;;;;5053850;28;20059;-82
2021/06/23 03:28:11;;;;;;;6.00;5.10;;;;;;;;;;5053318;28;20431;-82
2021/06/23 03:30:36;;;;;;;6.45;5.80;;;;;;;;;;5013496;28;20034;-82
2021/06/23 03:33:02;;;;;;;6.90;6.30;;;;;;;;;;4997054;28;20124;-82
2021/06/23 03:35:27;;;;;;;5.78;5.18;;;;;;;;;;5016592;28;20116;-82
2021/06/23 03:37:54;;;;;;;5.97;5.43;;;;;;;;;;4997020;28;20040;-82
2021/06/23 03:40:20;;;;;;;6.40;5.80;;;;;;;;;;4996989;28;20036;-83
2021/06/23 03:42:47;;;;;;;8.00;5.78;;;;;;;;;;4998084;28;20384;-83
2021/06/23 03:45:13;;;;;;;7.28;6.35;;;;;;;;;;5016061;28;20048;-81
2021/06/23 03:47:39;;;;;;;5.82;5.32;;;;;;;;;;5016637;28;20030;-82
2021/06/23 03:50:06;;;;;;;5.80;5.28;;;;;;;;;;5000054;28;20038;-82
2021/06/23 03:52:31;;;;;;;6.55;5.95;;;;;;;;;;5032781;28;20021;-82
2021/06/23 03:54:57;;;;;;;6.43;5.68;;;;;;;;;;5015862;28;20041;-82
2021/06/23 03:57:23;;;;;;;7.15;6.03;;;;;;;;;;5033225;28;20039;-81
2021/06/23 03:59:50;;;;;;;6.32;5.72;;;;;;;;;;5015586;28;20072;-82
2021/06/23 04:02:16;;;;;;;6.60;5.72;;;;;;;;;;5016104;28;20028;-81
2021/06/23 04:04:41;;;;;;;6.78;6.10;;;;;;;;;;5015787;28;20033;-81
2021/06/23 04:07:07;;;;;;;7.57;5.60;;;;;;;;;;5032972;28;20026;-82
2021/06/23 04:09:32;;;;;;;6.78;5.95;;;;;;;;;;5032198;28;20030;-82
2021/06/23 04:11:58;;;;;;;6.07;5.47;;;;;;;;;;5016162;28;20115;-82
2021/06/23 04:14:23;;;;;;;7.28;6.32;;;;;;;;;;5015441;28;20037;-82
2021/06/23 04:16:48;;;;;;;7.65;6.22;;;;;;;;;;5032387;28;20072;-82
2021/06/23 04:19:15;;;;;;;6.30;5.70;;;;;;;;;;4997638;28;20069;-81
2021/06/23 04:21:40;;;;;;;6.70;5.97;;;;;;;;;;5025143;28;20043;-82
2021/06/23 04:24:06;;;;;;;7.47;6.65;;;;;;;;;;5033855;28;20033;-82
2021/06/23 04:26:33;;;;;;;7.32;6.30;;;;;;;;;;5012555;28;20040;-81
2021/06/23 04:28:58;;;;;;;7.22;6.55;;;;;;;;;;5028790;28;20037;-82
2021/06/23 04:31:24;;;;;;;7.55;6.65;;;;;;;;;;5012169;28;20476;-81
2021/06/23 04:33:49;;;;;;;6.68;6.07;;;;;;;;;;4995828;28;20096;-81
2021/06/23 04:36:15;;;;;;;7.70;6.70;;;;;;;;;;5015466;28;20033;-80
2021/06/23 04:38:40;;;;;;;8.05;6.55;;;;;;;;;;5000364;28;20049;-81
2021/06/23 04:41:05;;;;;;;7.38;6.68;;;;;;;;;;5001284;28;20034;-81
2021/06/23 04:43:31;;;;;;;9.35;7.65;;;;;;;;;;5001510;28;20503;-80
2021/06/23 04:45:56;;;;;;;7.95;7.10;;;;;;;;;;4998199;28;20080;-81
2021/06/23 04:48:22;;;;;;;8.20;6.63;;;;;;;;;;5015072;28;20037;-81
2021/06/23 04:50:47;;;;;;;8.73;7.20;;;;;;;;;;5021866;28;20048;-81
2021/06/23 04:53:13;;;;;;;9.20;6.93;;;;;;;;;;5008447;28;20033;-81
2021/06/23 04:55:39;;;;;;;8.95;7.15;;;;;;;;;;5014526;28;20124;-81
2021/06/23 04:58:04;;;;;;;8.48;7.63;;;;;;;;;;5042029;28;20045;-82
2021/06/23 05:00:30;;;;;;;9.77;7.90;;;;;;;;;;5043030;28;20037;-82
2021/06/23 05:02:55;;;;;;;8.68;7.75;;;;;;;;;;5031527;28;20049;-82
2021/06/23 05:05:21;;;;;;;9.45;7.38;;;;;;;;;;5014723;28;20028;-81
2021/06/23 05:07:46;;;;;;;8.45;7.63;;;;;;;;;;5014281;28;20117;-83
2021/06/23 05:10:12;;;;;;;8.18;7.07;;;;;;;;;;5026572;28;20121;-83
2021/06/23 05:12:37;;;;;;;8.82;7.93;;;;;;;;;;5011471;28;20062;-82
2021/06/23 05:15:03;;;;;;;8.10;7.30;;;;;;;;;;5011529;28;20092;-83
2021/06/23 05:17:28;;;;;;;7.97;6.72;;;;;;;;;;4994365;28;20112;-79
2021/06/23 05:19:54;;;;;;;11.63;9.00;;;;;;;;;;5025687;28;20427;-78
2021/06/23 05:22:21;;;;;;;9.23;7.10;;;;;;;;;;5011524;28;20045;-77
2021/06/23 05:24:47;;;;;;;11.15;8.43;;;;;;;;;;5013826;28;20081;-78
2021/06/23 05:27:13;;;;;;;16.20;8.27;;;;;;;;;;5014574;28;20399;-78
2021/06/23 05:29:38;;;;;;;16.23;8.68;;;;;;;;;;5030102;28;20487;-78
2021/06/23 05:32:04;;;;;;;12.30;8.05;;;;;;;;;;5014408;28;20474;-77
2021/06/23 05:34:30;;;;;;;10.25;7.85;;;;;;;;;;4997600;28;20120;-78
2021/06/23 05:36:58;;;;;;;13.00;7.93;;;;;;;;;;4998056;28;20112;-78
2021/06/23 05:39:24;;;;;;;9.45;8.02;;;;;;;;;;5014681;28;20059;-78
2021/06/23 05:41:50;;;;;;;9.25;7.75;;;;;;;;;;5010805;28;20060;-77
2021/06/23 05:44:15;;;;;;;13.15;8.18;;;;;;;;;;5013794;28;20107;-78
2021/06/23 05:46:41;;;;;;;9.30;7.93;;;;;;;;;;5013003;28;20037;-77
2021/06/23 05:49:07;;;;;;;10.55;6.90;;;;;;;;;;5014069;28;20021;-77
2021/06/23 05:51:32;;;;;;;11.13;7.30;;;;;;;;;;5013722;28;20052;-77
2021/06/23 05:53:57;;;;;;;9.63;7.63;;;;;;;;;;5010758;28;20506;-78
2021/06/23 05:56:23;;;;;;;10.27;8.95;;;;;;;;;;4982621;28;20041;-77
2021/06/23 05:58:49;;;;;;;13.57;8.75;;;;;;;;;;4992051;28;20037;-77
2021/06/23 06:01:14;;;;;;;12.63;7.63;;;;;;;;;;5021980;28;20167;-78
2021/06/23 06:03:40;;;;;;;15.30;8.65;;;;;;;;;;4993790;28;20091;-78
2021/06/23 06:06:05;;;;;;;11.32;7.97;;;;;;;;;;5008793;28;20044;-78
2021/06/23 06:08:31;;;;;;;10.85;8.73;;;;;;;;;;5009175;28;20108;-78
2021/06/23 06:10:56;;;;;;;11.35;7.82;;;;;;;;;;5015652;28;20036;-78
2021/06/23 06:13:22;;;;;;;10.25;8.40;;;;;;;;;;5013158;28;20079;-78
2021/06/23 06:15:47;;;;;;;11.10;7.85;;;;;;;;;;5013655;28;20038;-78
2021/06/23 06:18:13;;;;;;;8.90;7.57;;;;;;;;;;5013664;28;20403;-78
2021/06/23 06:20:39;;;;;;;8.65;7.75;;;;;;;;;;5015631;28;20041;-77
2021/06/23 06:23:04;;;;;;;10.63;7.43;;;;;;;;;;5013198;28;20041;-78
2021/06/23 06:25:30;;;;;;;9.55;7.63;;;;;;;;;;5012829;28;20055;-77
2021/06/23 06:27:55;;;;;;;9.43;7.97;;;;;;;;;;5013975;28;20079;-78
2021/06/23 06:30:22;;;;;;;19.20;8.13;;;;;;;;;;5013619;28;20057;-79
2021/06/23 06:32:48;;;;;;;11.02;8.38;;;;;;;;;;5003048;28;20038;-79
2021/06/23 06:35:14;;;;;;;9.80;8.18;;;;;;;;;;4997246;28;20034;-79
2021/06/23 06:37:39;;;;;;;12.23;10.25;;;;;;;;;;4978232;28;20030;-78
2021/06/23 06:40:06;;;;;;;14.95;10.63;;;;;;;;;;4993943;28;20373;-77
2021/06/23 06:42:31;;;;;;;17.58;11.80;;;;;;;;;;4978028;28;20023;-78
2021/06/23 06:44:57;;;;;;;23.35;19.05;;;;;;;;;;4977711;28;20392;-78
2021/06/23 06:47:22;;;;;;;31.98;20.95;;;;;;;;;;4995414;28;20034;-76
2021/06/23 06:49:47;;;;;;;33.25;20.80;;;;;;;;;;5007082;28;20103;-76
2021/06/23 06:52:13;;;;;;;27.83;20.65;;;;;;;;;;5011441;28;20034;-76
2021/06/23 06:54:39;;;;;;;27.88;21.60;;;;;;;;;;4995907;28;20045;-76
2021/06/23 06:57:04;;;;;;;29.20;21.00;;;;;;;;;;4998138;28;20048;-76
2021/06/23 06:59:30;;;;;;;29.25;19.65;;;;;;;;;;5013142;28;20403;-76
2021/06/23 07:01:55;;;;;;;24.88;18.42;;;;;;;;;;5013757;28;20034;-76
2021/06/23 07:04:21;;;;;;;27.83;19.13;;;;;;;;;;4981128;28;20038;-77
2021/06/23 07:06:47;;;;;;;22.58;16.98;;;;;;;;;;5013995;28;20029;-76
2021/06/23 07:09:13;;;;;;;23.45;16.90;;;;;;;;;;4997383;28;20037;-76
2021/06/23 07:11:38;;;;;;;22.30;16.75;;;;;;;;;;5013990;28;20026;-76
2021/06/23 07:14:04;;;;;;;19.98;15.07;;;;;;;;;;5013538;28;20108;-76
2021/06/23 07:16:30;;;;;;;19.08;15.18;;;;;;;;;;4997506;28;20057;-76
2021/06/23 07:18:55;;;;;;;20.50;14.95;;;;;;;;;;5013562;28;20061;-76
2021/06/23 07:21:21;;;;;;;18.98;14.40;;;;;;;;;;5037340;28;20029;-76
2021/06/23 07:23:47;;;;;;;18.42;13.75;;;;;;;;;;5052671;28;20475;-76
2021/06/23 07:26:13;;;;;;;16.75;13.63;;;;;;;;;;5036309;28;20033;-76
2021/06/23 07:28:51;;;;;;;19.27;14.50;;;;;;;;;;5036264;28;20029;-76
2021/06/23 07:31:44;;;;;;;17.08;13.45;;;;;;;;;;5052609;28;20549;-76
2021/06/23 07:36:42;;;;;;;15.82;12.43;;;;;;;;;;5033319;28;20029;-79
2021/06/23 07:39:12;;;;;;;15.32;12.45;;;;;;;;;;5016615;28;20029;-80
2021/06/23 07:41:39;;;;;;;15.15;13.23;;;;;;;;;;5017019;28;20033;-80
2021/06/23 07:44:04;;;;;;;14.60;11.40;;;;;;;;;;5016761;28;20034;-80
2021/06/23 07:46:34;;;;;;;13.65;11.57;;;;;;;;;;5016661;28;20038;-80
2021/06/23 07:49:00;;;;;;;15.70;12.30;;;;;;;;;;5013011;28;20488;-80
2021/06/23 08:10:13;;;;;;;15.73;11.60;;;;;;;;;;5013022;28;20030;-77
2021/06/23 08:13:12;;;;;;;14.13;11.15;;;;;;;;;;5012479;28;20033;-78
2021/06/23 08:15:32;;;;;;;12.57;10.63;;;;;;;;;;5028535;28;20148;-78
2021/06/23 08:17:58;;;;;;;12.40;11.10;;;;;;;;;;5010961;28;20122;-77
2021/06/23 08:20:23;;;;;;;13.23;10.40;;;;;;;;;;5002946;28;20401;-78
2021/06/23 08:22:49;;;;;;;13.52;9.60;;;;;;;;;;5035493;28;20040;-78
2021/06/23 08:25:14;;;;;;;12.27;10.40;;;;;;;;;;5035280;28;20033;-77
2021/06/23 08:27:40;;;;;;;13.90;11.55;;;;;;;;;;5035486;28;20067;-77
2021/06/23 08:30:06;;;;;;;11.77;10.57;;;;;;;;;;5018525;28;20033;-77
2021/06/23 08:32:32;;;;;;;11.88;10.65;;;;;;;;;;5051873;28;20029;-77
2021/06/23 08:34:57;;;;;;;11.02;9.68;;;;;;;;;;5025959;28;20143;-78
2021/06/23 08:37:23;;;;;;;12.02;9.95;;;;;;;;;;5015860;28;20029;-79
2021/06/23 08:39:48;;;;;;;11.32;8.77;;;;;;;;;;5010276;28;20030;-78
2021/06/23 08:42:14;;;;;;;11.82;10.63;;;;;;;;;;5028709;28;20038;-78
2021/06/23 08:44:39;;;;;;;12.63;9.68;;;;;;;;;;5011715;28;20042;-78
2021/06/23 08:47:05;;;;;;;15.68;10.70;;;;;;;;;;5028663;28;20048;-79
2021/06/23 08:49:30;;;;;;;12.57;10.82;;;;;;;;;;5014938;28;20495;-79
2021/06/23 08:51:56;;;;;;;11.98;10.77;;;;;;;;;;4999312;28;20045;-79
2021/06/23 08:54:22;;;;;;;12.05;10.73;;;;;;;;;;5015478;28;20033;-79
2021/06/23 08:56:50;;;;;;;12.15;10.48;;;;;;;;;;5015654;28;20557;-80
2021/06/23 08:59:15;;;;;;;13.10;11.38;;;;;;;;;;5015177;28;20029;-79
2021/06/23 09:01:44;;;;;;;15.57;13.93;;;;;;;;;;5031462;28;20037;-79
2021/06/23 09:04:11;;;;;;;21.80;19.08;;;;;;;;;;5031331;28;20029;-79
2021/06/23 09:06:54;;;;;;;23.58;19.25;;;;;;;;;;5014794;28;20027;-84
2021/06/23 09:09:19;;;;;;;22.33;19.92;;;;;;;;;;4999172;28;20802;-81
2021/06/23 09:11:45;;;;;;;25.13;20.70;;;;;;;;;;5027734;28;20099;-81
2021/06/23 09:14:12;;;;;;;22.48;19.42;;;;;;;;;;5011737;28;20096;-83
2021/06/23 09:17:16;;;;;;;24.13;20.25;;;;;;;;;;4995064;28;20061;-81
2021/06/23 09:19:45;;;;;;;26.65;20.25;;;;;;;;;;4994717;28;20072;-81
2021/06/23 09:22:37;;;;;;;23.52;19.27;;;;;;;;;;5033234;28;20058;-81
2021/06/23 09:25:13;;;;;;;23.15;19.65;;;;;;;;;;5034082;28;20479;-81
2021/06/23 09:27:58;;;;;;;20.08;17.52;;;;;;;;;;5035967;28;20045;-81
2021/06/23 09:30:31;;;;;;;21.70;17.83;;;;;;;;;;5001221;28;20055;-81
2021/06/23 09:33:07;;;;;;;20.45;18.40;;;;;;;;;;4996275;28;20037;-81
2021/06/23 09:35:32;;;;;;;20.25;16.17;;;;;;;;;;5014192;28;20483;-81
2021/06/23 09:37:58;;;;;;;17.67;15.80;;;;;;;;;;4978436;28;20029;-81
2021/06/23 09:40:24;;;;;;;19.42;16.42;;;;;;;;;;4978332;28;20117;-81
2021/06/23 09:42:50;;;;;;;19.00;16.63;;;;;;;;;;4994647;28;20038;-81
2021/06/23 09:45:16;;;;;;;17.33;15.52;;;;;;;;;;5027277;28;20445;-79
2021/06/23 09:47:44;;;;;;;16.42;14.23;;;;;;;;;;5010741;28;20476;-78
2021/06/23 09:50:11;;;;;;;17.98;14.55;;;;;;;;;;5009578;28;20030;-78
2021/06/23 09:52:49;;;;;;;16.30;13.80;;;;;;;;;;4998198;28;20125;-78
2021/06/23 09:55:14;;;;;;;21.58;14.30;;;;;;;;;;4999504;28;20030;-78
2021/06/23 09:57:41;;;;;;;16.08;14.18;;;;;;;;;;4997774;28;20550;-78
2021/06/23 10:00:08;;;;;;;17.55;14.82;;;;;;;;;;4997979;28;20029;-78
2021/06/23 10:02:37;;;;;;;16.20;14.60;;;;;;;;;;5030896;28;20035;-79
2021/06/23 10:05:23;;;;;;;16.10;14.35;;;;;;;;;;4998749;28;20075;-78
2021/06/23 10:07:49;;;;;;;15.65;12.93;;;;;;;;;;5031634;28;20095;-78
2021/06/23 10:10:17;;;;;;;13.88;12.43;;;;;;;;;;4997862;28;20507;-78
2021/06/23 10:12:44;;;;;;;15.07;12.85;;;;;;;;;;5014281;28;20077;-78
2021/06/23 10:15:11;;;;;;;14.60;13.10;;;;;;;;;;5008765;28;20112;-81
2021/06/23 10:17:37;;;;;;;14.88;13.40;;;;;;;;;;5023096;28;20124;-81
2021/06/23 10:20:02;;;;;;;15.63;13.88;;;;;;;;;;4999142;28;20049;-80
2021/06/23 10:22:28;;;;;;;13.75;12.30;;;;;;;;;;5017139;28;20030;-80
2021/06/23 10:24:54;;;;;;;15.82;14.23;;;;;;;;;;5033274;28;20038;-81
2021/06/23 10:27:21;;;;;;;14.68;13.25;;;;;;;;;;5000762;28;20140;-81
2021/06/23 10:29:46;;;;;;;15.65;13.95;;;;;;;;;;5016656;28;20034;-80
2021/06/23 10:32:12;;;;;;;14.02;12.25;;;;;;;;;;4999988;28;20115;-81
2021/06/23 10:34:37;;;;;;;13.95;12.45;;;;;;;;;;5020183;28;20041;-81
2021/06/23 10:37:03;;;;;;;13.52;12.13;;;;;;;;;;5003686;28;20060;-81
2021/06/23 10:39:30;;;;;;;13.68;12.30;;;;;;;;;;5020472;28;20121;-80
2021/06/23 10:42:01;;;;;;;13.52;12.07;;;;;;;;;;5004295;28;20074;-80
2021/06/23 10:44:28;;;;;;;14.77;13.27;;;;;;;;;;5020181;28;20040;-80
2021/06/23 10:47:00;;;;;;;14.43;12.90;;;;;;;;;;5003622;28;20037;-80
2021/06/23 10:49:39;;;;;;;13.35;12.07;;;;;;;;;;4987736;28;20021;-80
2021/06/23 10:52:41;;;;;;;13.80;12.45;;;;;;;;;;5020168;28;20389;-81
2021/06/23 10:55:26;;;;;;;13.23;11.82;;;;;;;;;;5029664;28;20041;-80
2021/06/23 10:58:11;;;;;;;13.85;12.45;;;;;;;;;;5040158;28;20037;-79
2021/06/23 11:00:37;;;;;;;14.48;13.02;;;;;;;;;;5019589;28;20033;-78
2021/06/23 11:03:04;;;;;;;16.25;13.07;;;;;;;;;;5004024;28;20533;-78
2021/06/23 11:05:36;;;;;;;14.20;12.63;;;;;;;;;;5036618;28;20033;-78
2021/06/23 11:08:01;;;;;;;13.45;12.07;;;;;;;;;;5020608;28;20059;-78
2021/06/23 11:10:33;;;;;;;13.05;11.73;;;;;;;;;;5003912;28;20029;-78
2021/06/23 11:13:06;;;;;;;15.10;13.55;;;;;;;;;;5004247;28;20087;-78
2021/06/23 11:15:32;;;;;;;14.18;12.77;;;;;;;;;;5016185;28;20040;-78
2021/06/23 11:18:31;;;;;;;14.40;12.93;;;;;;;;;;5016655;28;20033;-78
2021/06/23 11:21:00;;;;;;;13.63;12.25;;;;;;;;;;5044846;28;20028;-78
2021/06/23 11:23:55;;;;;;;13.63;12.23;;;;;;;;;;5034050;28;20056;-78
2021/06/23 11:26:24;;;;;;;13.75;12.45;;;;;;;;;;5006985;28;20047;-78
2021/06/23 11:28:57;;;;;;;14.95;12.55;;;;;;;;;;5016343;28;20037;-78
2021/06/23 11:31:38;;;;;;;14.65;13.20;;;;;;;;;;5015712;28;20065;-78
2021/06/23 11:34:04;;;;;;;12.77;11.57;;;;;;;;;;5013355;28;20037;-79
2021/06/23 11:36:29;;;;;;;13.65;12.20;;;;;;;;;;5024871;28;20041;-78
2021/06/23 11:38:55;;;;;;;14.23;12.73;;;;;;;;;;4982304;28;20045;-78
2021/06/23 11:41:20;;;;;;;14.23;12.85;;;;;;;;;;5016585;28;20049;-77
2021/06/23 11:43:48;;;;;;;14.07;12.57;;;;;;;;;;5015993;28;20032;-78
2021/06/23 11:46:13;;;;;;;14.70;12.73;;;;;;;;;;5000342;28;20033;-78
2021/06/23 11:48:41;;;;;;;14.68;13.15;;;;;;;;;;5000104;28;20030;-78
2021/06/23 11:51:06;;;;;;;22.25;19.13;;;;;;;;;;4999679;28;20030;-78
2021/06/23 11:53:32;;;;;;;16.05;14.55;;;;;;;;;;5016038;28;20037;-78
2021/06/23 11:55:57;;;;;;;16.70;14.90;;;;;;;;;;5016125;28;20025;-78
2021/06/23 11:58:23;;;;;;;17.80;16.10;;;;;;;;;;5015699;28;20394;-78
2021/06/23 12:00:48;;;;;;;20.30;16.08;;;;;;;;;;5015638;28;20116;-77
2021/06/23 12:03:15;;;;;;;19.48;16.13;;;;;;;;;;5016339;28;20044;-78
2021/06/23 12:05:40;;;;;;;18.80;15.73;;;;;;;;;;5016256;28;20092;-78
2021/06/23 12:08:06;;;;;;;17.85;15.98;;;;;;;;;;5016422;28;20057;-78
2021/06/23 12:10:32;;;;;;;16.83;15.02;;;;;;;;;;5016043;28;20036;-78
2021/06/23 12:12:57;;;;;;;17.27;15.40;;;;;;;;;;5015517;28;20029;-78
2021/06/23 12:15:23;;;;;;;19.20;16.90;;;;;;;;;;5016009;28;20018;-78
2021/06/23 12:17:50;;;;;;;18.20;16.40;;;;;;;;;;5032254;28;20033;-78
2021/06/23 12:20:16;;;;;;;18.10;16.17;;;;;;;;;;5018904;28;20464;-78
2021/06/23 12:22:42;;;;;;;16.77;14.82;;;;;;;;;;5035897;28;20037;-78
2021/06/23 12:25:09;;;;;;;18.35;15.93;;;;;;;;;;5034948;28;20368;-78
2021/06/23 12:27:35;;;;;;;17.40;15.70;;;;;;;;;;5050261;28;20079;-78
2021/06/23 12:30:01;;;;;;;17.05;15.27;;;;;;;;;;5015302;28;20021;-78
2021/06/23 12:32:26;;;;;;;16.80;15.10;;;;;;;;;;4999419;28;20029;-78
2021/06/23 12:34:52;;;;;;;16.65;15.02;;;;;;;;;;5015639;28;20030;-78
2021/06/23 12:37:18;;;;;;;17.20;15.50;;;;;;;;;;4999146;28;20033;-78
2021/06/23 12:39:44;;;;;;;17.25;15.45;;;;;;;;;;5015747;28;20029;-78
2021/06/23 12:42:09;;;;;;;18.23;15.25;;;;;;;;;;5015205;28;20429;-78
2021/06/23 12:44:36;;;;;;;16.95;15.32;;;;;;;;;;4998108;28;20049;-78
2021/06/23 12:47:03;;;;;;;18.00;15.10;;;;;;;;;;4999148;28;20112;-78
2021/06/23 12:49:28;;;;;;;17.27;15.52;;;;;;;;;;5015340;28;20037;-78
2021/06/23 12:51:57;;;;;;;16.92;14.95;;;;;;;;;;5015481;28;20030;-78
2021/06/23 12:54:24;;;;;;;17.15;14.73;;;;;;;;;;5015330;28;20033;-78
2021/06/23 12:56:49;;;;;;;17.58;15.85;;;;;;;;;;5015035;28;20038;-78
2021/06/23 12:59:14;;;;;;;15.65;14.05;;;;;;;;;;5014494;28;20391;-78
2021/06/23 13:01:40;;;;;;;16.08;14.48;;;;;;;;;;5014525;28;20033;-78
2021/06/23 13:04:05;;;;;;;17.15;15.35;;;;;;;;;;4998826;28;20105;-78
2021/06/23 13:06:31;;;;;;;17.02;15.00;;;;;;;;;;5015096;28;20029;-78
2021/06/23 13:08:56;;;;;;;17.08;15.40;;;;;;;;;;5014754;28;20110;-78
2021/06/23 13:11:22;;;;;;;15.60;14.10;;;;;;;;;;5030870;28;20041;-78
2021/06/23 13:13:48;;;;;;;16.70;14.70;;;;;;;;;;5014935;28;20030;-78
2021/06/23 13:16:17;;;;;;;15.80;14.23;;;;;;;;;;5014012;28;20033;-78
2021/06/23 13:18:45;;;;;;;16.65;14.45;;;;;;;;;;5031107;28;20021;-78
2021/06/23 13:21:11;;;;;;;18.50;14.07;;;;;;;;;;5037367;28;20053;-78
2021/06/23 13:23:36;;;;;;;16.33;14.63;;;;;;;;;;5014712;28;20033;-78
2021/06/23 13:26:02;;;;;;;15.50;13.98;;;;;;;;;;5014602;28;20049;-78
2021/06/23 13:28:28;;;;;;;16.63;14.52;;;;;;;;;;5010890;28;20080;-78
2021/06/23 13:30:53;;;;;;;14.68;13.18;;;;;;;;;;5030213;28;20033;-78
2021/06/23 13:33:19;;;;;;;15.15;13.43;;;;;;;;;;5014354;28;20069;-78
2021/06/23 13:35:45;;;;;;;13.52;12.13;;;;;;;;;;4998051;28;20039;-78
2021/06/23 13:38:10;;;;;;;15.20;13.68;;;;;;;;;;4981819;28;20033;-78
2021/06/23 13:40:36;;;;;;;13.73;12.27;;;;;;;;;;5014209;28;20037;-78
2021/06/23 13:43:01;;;;;;;14.20;12.70;;;;;;;;;;5014280;28;20104;-78
2021/06/23 13:45:27;;;;;;;13.73;12.35;;;;;;;;;;5013819;28;20571;-78
2021/06/23 13:47:53;;;;;;;14.10;12.80;;;;;;;;;;5014260;28;20399;-78
2021/06/23 13:50:19;;;;;;;14.50;12.18;;;;;;;;;;5014390;28;20037;-78
2021/06/23 13:52:47;;;;;;;14.90;12.02;;;;;;;;;;5011746;28;20534;-78
2021/06/23 13:55:14;;;;;;;13.40;12.00;;;;;;;;;;5013360;28;20041;-78
2021/06/23 13:57:41;;;;;;;13.38;12.07;;;;;;;;;;5013778;28;20569;-78
2021/06/23 14:00:08;;;;;;;14.95;12.50;;;;;;;;;;5030132;28;20033;-78
2021/06/23 14:02:34;;;;;;;13.73;12.25;;;;;;;;;;4997985;28;20113;-78
2021/06/23 14:04:59;;;;;;;13.57;12.07;;;;;;;;;;5014084;28;20037;-78
2021/06/23 14:07:25;;;;;;;12.90;11.55;;;;;;;;;;5013811;28;20060;-78
2021/06/23 14:09:50;;;;;;;12.48;11.18;;;;;;;;;;4981305;28;20025;-78
2021/06/23 14:12:16;;;;;;;14.88;11.45;;;;;;;;;;5013787;28;20037;-78
2021/06/23 14:14:41;;;;;;;11.80;10.68;;;;;;;;;;4996872;28;20037;-78
2021/06/23 14:17:07;;;;;;;13.02;11.20;;;;;;;;;;5010415;28;20029;-78
2021/06/23 14:19:32;;;;;;;11.73;10.63;;;;;;;;;;4994688;28;20037;-78
2021/06/23 14:21:57;;;;;;;12.23;11.02;;;;;;;;;;5019671;28;20026;-78
2021/06/23 14:24:23;;;;;;;11.77;10.65;;;;;;;;;;5013410;28;20095;-78
2021/06/23 14:26:50;;;;;;;12.68;11.43;;;;;;;;;;5009905;28;20496;-78
2021/06/23 14:29:16;;;;;;;11.57;10.40;;;;;;;;;;5010302;28;20065;-78
2021/06/23 14:31:41;;;;;;;14.73;11.02;;;;;;;;;;4993761;28;20512;-79
2021/06/23 14:34:08;;;;;;;11.95;10.80;;;;;;;;;;5014450;28;20042;-77
2021/06/23 14:36:34;;;;;;;11.40;10.25;;;;;;;;;;5027997;28;20059;-78
2021/06/23 14:39:01;;;;;;;11.40;10.40;;;;;;;;;;4993429;28;20030;-78
2021/06/23 14:41:27;;;;;;;10.57;9.48;;;;;;;;;;5010233;28;20510;-79
2021/06/23 14:43:52;;;;;;;11.65;10.57;;;;;;;;;;5026437;28;20038;-78
2021/06/23 14:46:18;;;;;;;11.93;10.70;;;;;;;;;;5026814;28;20425;-78
2021/06/23 14:48:43;;;;;;;10.63;9.52;;;;;;;;;;5013065;28;20041;-76
2021/06/23 14:51:09;;;;;;;10.75;9.35;;;;;;;;;;4996768;28;20029;-76